Terminal Aerodrome Forecast
Issued by NWS Charleston, SC

Home | Current Version | Previous Version | Text Only | Print | Product List | Glossary On
Versions: 1 2 3 4 5 6 7 8 9 10 11 12 13 14 15 16 17 18 19 20 21
000
FTUS42 KCHS 220500
TAFCHS
TAF
KCHS 220520Z 2206/2306 06003KT P6SM SCT025 BKN120
     FM221000 VRB02KT P6SM VCSH SCT015 BKN035
      TEMPO 2211/2213 BKN025
     FM221500 VRB06KT P6SM VCTS SCT030CB BKN060
     FM222100 16005KT P6SM SCT040 BKN250=

USA.gov is the U.S. government's official web portal to all federal, state and local government web resources and services.